createdAt,value
2023-09-13T00:03:25.223Z,80.87
2023-09-13T00:08:31.829Z,81.40
2023-09-13T00:13:38.756Z,79.80
2023-09-13T00:18:45.565Z,79.07
2023-09-13T00:23:51.941Z,78.00
2023-09-13T00:28:59.294Z,77.67
2023-09-13T00:34:06.636Z,78.37
2023-09-13T00:39:14.632Z,78.07
2023-09-13T00:44:22.163Z,79.82
2023-09-13T00:49:30.410Z,79.03
2023-09-13T00:54:37.474Z,78.23
2023-09-13T00:59:44.264Z,88.70
2023-09-13T01:04:51.226Z,78.83
2023-09-13T01:15:07.703Z,82.63
2023-09-13T01:20:48.277Z,79.00
2023-09-13T01:26:25.698Z,82.17
2023-09-13T01:31:33.945Z,79.22
2023-09-13T01:36:41.428Z,81.33
2023-09-13T01:41:52.934Z,79.30
2023-09-13T01:47:00.739Z,80.47
2023-09-13T01:52:09.096Z,82.20
2023-09-13T01:57:16.733Z,81.80
2023-09-13T02:02:23.643Z,77.10
2023-09-13T02:12:37.594Z,80.53
2023-09-13T02:17:45.385Z,79.43
2023-09-13T02:22:52.337Z,77.30
2023-09-13T02:27:58.940Z,78.47
2023-09-13T02:33:06.488Z,77.13
2023-09-13T02:38:13.308Z,77.50
2023-09-13T02:43:20.537Z,77.03
2023-09-13T02:48:27.565Z,75.52
2023-09-13T02:58:40.980Z,78.57
2023-09-13T03:03:48.436Z,81.33
2023-09-13T03:08:55.601Z,79.97
2023-09-13T03:14:02.521Z,82.90
2023-09-13T03:19:10.452Z,79.27
2023-09-13T03:24:18.123Z,80.53
2023-09-13T03:29:24.930Z,79.95
2023-09-13T03:34:33.111Z,77.83
2023-09-13T03:39:40.984Z,80.33
2023-09-13T03:44:49.219Z,80.03
2023-09-13T03:49:56.495Z,81.43
2023-09-13T03:55:03.156Z,78.87
2023-09-13T04:00:12.600Z,78.50
2023-09-13T04:05:19.886Z,77.80
2023-09-13T04:10:28.139Z,79.90
2023-09-13T04:15:35.345Z,76.40
2023-09-13T04:20:43.714Z,77.47
2023-09-13T04:25:50.426Z,77.83
2023-09-13T04:31:00.866Z,80.23
2023-09-13T04:36:07.884Z,81.70
2023-09-13T04:41:16.393Z,80.17
2023-09-13T04:46:23.295Z,78.03
2023-09-13T04:51:30.102Z,79.00
2023-09-13T04:56:36.824Z,78.87
2023-09-13T05:06:49.291Z,78.57
2023-09-13T05:11:55.758Z,79.07
2023-09-13T05:17:04.046Z,81.77
2023-09-13T05:22:10.574Z,78.33
2023-09-13T05:27:18.095Z,82.47
2023-09-13T05:42:37.326Z,78.63
2023-09-13T05:47:43.862Z,82.67
2023-09-13T05:52:50.782Z,86.47
2023-09-13T05:57:58.506Z,80.73
2023-09-13T06:03:06.369Z,82.07
2023-09-13T06:08:14.152Z,82.65
2023-09-13T06:13:20.926Z,81.83
2023-09-13T06:23:42.074Z,80.50
2023-09-13T06:28:48.774Z,82.33
2023-09-13T06:33:56.653Z,82.93
2023-09-13T06:39:04.293Z,85.35
2023-09-13T06:44:13.078Z,86.30
2023-09-13T06:49:20.987Z,86.00
2023-09-13T06:54:29.121Z,84.40
2023-09-13T06:59:50.681Z,84.07
2023-09-13T07:09:54.520Z,82.97
2023-09-13T07:15:01.334Z,84.37
2023-09-13T07:20:09.482Z,84.87
2023-09-13T07:25:16.196Z,83.50
2023-09-13T07:30:22.762Z,85.50
2023-09-13T07:35:29.428Z,87.27
2023-09-13T07:40:36.647Z,82.95
2023-09-13T07:45:43.900Z,82.85
2023-09-13T07:50:50.739Z,84.83
2023-09-13T07:56:01.126Z,87.63
2023-09-13T08:01:08.039Z,84.43
2023-09-13T08:06:15.636Z,87.05
2023-09-13T08:11:22.412Z,92.43
2023-09-13T08:16:31.864Z,90.07
2023-09-13T08:21:40.580Z,87.57
2023-09-13T08:26:53.831Z,86.80
2023-09-13T08:32:01.261Z,90.03
2023-09-13T08:37:07.914Z,88.78
2023-09-13T08:42:16.938Z,87.97
2023-09-13T08:47:27.395Z,86.97
2023-09-13T08:52:37.400Z,87.72
2023-09-13T08:57:44.514Z,86.60
2023-09-13T09:02:54.093Z,87.57
2023-09-13T09:08:05.053Z,87.12
2023-09-13T09:13:13.738Z,87.80
2023-09-13T09:18:20.960Z,87.03
2023-09-13T09:23:30.196Z,90.43
2023-09-13T09:28:37.732Z,92.63
2023-09-13T09:33:45.401Z,89.70
2023-09-13T09:38:54.098Z,92.60
2023-09-13T09:44:02.392Z,88.10
2023-09-13T09:49:09.492Z,86.12
2023-09-13T09:54:16.210Z,87.60
2023-09-13T09:59:23.552Z,86.67
2023-09-13T10:04:30.855Z,87.20
2023-09-13T10:09:45.383Z,85.10
2023-09-13T10:14:52.617Z,88.15
2023-09-13T10:20:01.015Z,86.57
2023-09-13T10:25:11.176Z,89.22
2023-09-13T10:30:26.162Z,89.72
2023-09-13T10:35:35.026Z,88.87
2023-09-13T10:40:51.318Z,87.72
2023-09-13T10:46:00.052Z,87.65
2023-09-13T10:51:09.665Z,89.97
2023-09-13T10:56:19.942Z,86.60
2023-09-13T11:01:28.654Z,88.07
2023-09-13T11:06:35.616Z,86.43
2023-09-13T11:11:50.155Z,87.83
2023-09-13T11:17:01.099Z,90.70
2023-09-13T11:22:09.286Z,88.40
2023-09-13T11:27:18.296Z,86.65
2023-09-13T11:32:30.540Z,88.05
2023-09-13T11:37:39.630Z,90.70
2023-09-13T11:43:01.437Z,90.53
2023-09-13T11:47:58.383Z,90.43
2023-09-13T11:53:23.800Z,87.17
2023-09-13T11:58:50.920Z,92.93
2023-09-13T12:04:24.046Z,91.03
2023-09-13T12:09:00.161Z,92.83
2023-09-13T12:14:12.717Z,92.73
2023-09-13T12:19:16.312Z,96.40
2023-09-13T12:24:28.030Z,94.10
2023-09-13T12:29:36.405Z,89.37
2023-09-13T12:34:44.032Z,90.03
2023-09-13T12:39:51.311Z,94.00
2023-09-13T12:44:58.388Z,90.13
2023-09-13T12:50:14.064Z,93.00
2023-09-13T12:55:14.608Z,91.40
2023-09-13T13:00:21.766Z,91.60
2023-09-13T13:05:29.340Z,92.27
2023-09-13T13:10:38.120Z,91.05
2023-09-13T13:15:44.894Z,93.53
2023-09-13T13:21:05.510Z,95.35
2023-09-13T13:26:00.599Z,92.30
2023-09-13T13:31:07.965Z,89.70
2023-09-13T13:36:16.510Z,91.00
2023-09-13T13:41:22.997Z,92.30
2023-09-13T13:46:31.375Z,94.35
2023-09-13T13:51:41.183Z,95.00
2023-09-13T13:56:48.225Z,91.20
2023-09-13T14:01:55.580Z,90.60
2023-09-13T14:07:03.132Z,91.57
2023-09-13T14:12:11.072Z,92.80
2023-09-13T14:17:18.978Z,94.17
2023-09-13T14:22:26.774Z,89.70
2023-09-13T14:27:48.782Z,91.28
2023-09-13T14:32:42.893Z,89.83
2023-09-13T14:37:52.636Z,89.43
2023-09-13T14:43:00.645Z,88.17
2023-09-13T14:48:08.253Z,87.93
2023-09-13T14:53:16.955Z,83.90
2023-09-13T14:58:23.890Z,90.17
2023-09-13T15:03:33.092Z,84.73
2023-09-13T15:08:40.681Z,85.00
2023-09-13T15:13:47.522Z,85.33
2023-09-13T15:18:54.702Z,82.83
2023-09-13T15:24:01.938Z,85.30
2023-09-13T15:29:08.580Z,83.77
2023-09-13T15:34:15.319Z,83.73
2023-09-13T15:39:22.413Z,81.33
2023-09-13T15:44:29.188Z,81.42
2023-09-13T15:49:36.540Z,89.60
2023-09-13T15:54:44.373Z,80.62
2023-09-13T15:59:52.941Z,81.32
2023-09-13T16:05:00.411Z,80.27
2023-09-13T16:10:10.524Z,84.00
2023-09-13T16:15:21.212Z,79.44
2023-09-13T16:20:27.852Z,80.07
2023-09-13T16:25:35.056Z,78.30
2023-09-13T16:30:42.744Z,79.33
2023-09-13T16:35:49.837Z,79.73
2023-09-13T16:40:57.553Z,81.53
2023-09-13T16:46:04.857Z,77.17
2023-09-13T16:51:12.050Z,76.87
2023-09-13T16:56:19.890Z,78.97
2023-09-13T17:01:27.608Z,76.70
2023-09-13T17:06:34.987Z,78.42
2023-09-13T17:11:42.667Z,78.47
2023-09-13T17:16:50.313Z,78.15
2023-09-13T17:22:02.430Z,78.40
2023-09-13T17:27:10.406Z,76.80
2023-09-13T17:32:19.493Z,76.47
2023-09-13T17:37:29.927Z,77.20
2023-09-13T17:42:36.218Z,75.87
2023-09-13T17:47:44.067Z,82.60
2023-09-13T17:52:52.890Z,75.50
2023-09-13T17:58:01.735Z,75.70
2023-09-13T18:03:09.064Z,79.40
2023-09-13T18:08:16.157Z,77.00
2023-09-13T18:13:23.305Z,75.04
2023-09-13T18:18:30.449Z,75.67
2023-09-13T18:23:40.265Z,74.90
2023-09-13T18:28:49.247Z,74.73
2023-09-13T18:33:56.737Z,74.83
2023-09-13T18:39:05.629Z,74.75
2023-09-13T18:44:12.954Z,74.87
2023-09-13T18:49:19.806Z,75.03
2023-09-13T18:54:26.901Z,79.30
2023-09-13T18:59:35.368Z,73.33
2023-09-13T19:04:42.120Z,77.27
2023-09-13T19:09:50.066Z,76.77
2023-09-13T19:14:59.144Z,73.93
2023-09-13T19:20:08.519Z,76.93
2023-09-13T19:25:15.510Z,74.43
2023-09-13T19:30:22.796Z,74.08
2023-09-13T19:35:32.789Z,73.52
2023-09-13T19:40:40.510Z,74.87
2023-09-13T19:45:49.368Z,73.63
2023-09-13T19:51:10.169Z,74.73
2023-09-13T19:56:16.297Z,77.67
2023-09-13T20:01:25.163Z,71.98
2023-09-13T20:06:34.916Z,72.43
2023-09-13T20:11:45.053Z,72.70
2023-09-13T20:16:51.754Z,72.67
2023-09-13T20:21:58.743Z,72.67
2023-09-13T20:27:06.113Z,72.00
2023-09-13T20:32:12.939Z,72.17
2023-09-13T20:37:19.873Z,72.70
2023-09-13T20:42:29.955Z,71.42
2023-09-13T20:47:38.018Z,71.00
2023-09-13T20:52:45.177Z,72.73
2023-09-13T20:57:52.148Z,71.67
2023-09-13T21:02:59.216Z,71.15
2023-09-13T21:08:06.534Z,70.83
2023-09-13T21:13:13.437Z,74.33
2023-09-13T21:18:21.070Z,71.80
2023-09-13T21:23:28.521Z,72.13
2023-09-13T21:28:34.916Z,71.15
2023-09-13T21:33:42.070Z,71.97
2023-09-13T21:38:49.572Z,70.97
2023-09-13T21:43:56.911Z,72.50
2023-09-13T21:49:03.949Z,71.35
2023-09-13T21:54:11.480Z,71.43
2023-09-13T21:59:18.687Z,69.80
2023-09-13T22:04:26.511Z,69.85
2023-09-13T22:09:32.925Z,70.45
2023-09-13T22:14:43.924Z,69.80
2023-09-13T22:19:52.725Z,69.87
2023-09-13T22:25:00.844Z,70.10
2023-09-13T22:30:09.616Z,69.95
2023-09-13T22:35:19.006Z,69.83
2023-09-13T22:40:26.793Z,70.40
2023-09-13T22:45:33.857Z,70.37
2023-09-13T22:50:41.278Z,70.28
2023-09-13T22:55:57.322Z,69.57
2023-09-13T23:01:11.690Z,71.65
2023-09-13T23:06:20.608Z,72.05
2023-09-13T23:11:28.347Z,71.72
2023-09-13T23:16:36.155Z,70.87
2023-09-13T23:21:43.420Z,71.50
2023-09-13T23:26:52.500Z,72.03
2023-09-13T23:32:01.354Z,72.80
2023-09-13T23:37:09.310Z,74.23
2023-09-13T23:42:17.113Z,70.23
2023-09-13T23:47:23.993Z,70.66
2023-09-13T23:52:30.332Z,70.90
2023-09-13T23:57:38.252Z,70.22
